METAR UND TAF INFORMATION
ESNQ 081020Z AUTO 35005KT 9999 BKN036/// OVC053/// 12/05 Q1019

 FLUGHAFENKARTE

 RUNWAY INFORMATION
Runway 03 Runway length 8209 ft Runway width 148 ft
Runway elevation 1508 ft Runway displaced threshold 0 ft Runway heading 34
Runway 21 Runway length 8209 ft Runway width 148 ft
Runway elevation 1432 ft Runway displaced threshold 0 ft Runway heading 214

 AIRPORT FREQUENCIES
Type TWR Name TWR Frequency 130.15 MHZ

 AIRPORT NEAR NAVIGATION AIDS
Type VOR-DME Name Kiruna Frequency 115200 KHZ
Type NDB Name Kiruna Frequency 360 KHZ